Helliar — 2EPP5 — position and weather

sailwx.info

Track history (hours):
 
Tides and Currents Weather Stations Pressure Air Temp Water Temp Dewpoint Dewpoint Depression Visibility Wind Speed Wind Dir Waves Ship Positions

Helliar

Last reported at 2017-Oct-21 18:25 UTC. Time now 2017-Oct-22 10:19 UTC.
Position N 57°33' W 001°35'.

Length 122 m; draft 5.4 m.

Type: Cargo ship. MMSI: 235087119.

Date/timePositionNaut miles runAvg speedWind from/ knotsBaromVisibWave heightAir tempDewpointWater temp
2017-Oct-21 18:25N 57°33' W 001°35'614.5
2017-Oct-21 18:00N 57°28' W 001°39'1414.5
2017-Oct-21 17:03N 57°16' W 001°52'114.3
2017-Oct-21 17:00N 57°15' W 001°53'713.7
2017-Oct-21 16:30N 57°10' W 002°01'3 5.4
2017-Oct-21 15:59N 57°09' W 002°05'0 0.0
2017-Oct-21 15:29N 57°09' W 002°05'0 0.0
2017-Oct-21 14:59N 57°09' W 002°05'0 0.0
2017-Oct-21 14:29N 57°09' W 002°05'0 0.0
2017-Oct-21 13:29N 57°09' W 002°05'0 0.0
2017-Oct-21 12:59N 57°09' W 002°05'0 0.0
2017-Oct-21 12:29N 57°09' W 002°05'0 0.0
2017-Oct-21 11:59N 57°09' W 002°05'0 0.0
2017-Oct-21 11:29N 57°09' W 002°05'0 0.0
2017-Oct-21 10:59N 57°09' W 002°05'0 0.0
2017-Oct-21 10:29N 57°09' W 002°05'0 0.0
2017-Oct-21 09:59N 57°09' W 002°05'0 0.0
2017-Oct-21 09:29N 57°09' W 002°05'0 0.0
2017-Oct-21 08:59N 57°09' W 002°05'0 0.9
2017-Oct-21 08:30N 57°08' W 002°04'2 4.7
2017-Oct-21 08:00N 57°10' W 002°01'510.8
2017-Oct-21 07:30N 57°14' W 001°55'611.3
2017-Oct-21 06:59N 57°19' W 001°49'510.9
2017-Oct-21 06:30N 57°24' W 001°45'510.7
2017-Oct-21 06:00N 57°28' W 001°39'510.8
2017-Oct-21 05:30N 57°33' W 001°36'15 0.5
2017-Oct-19 19:57N 57°48' W 001°35'714.7
2017-Oct-19 19:30N 57°42' W 001°36'815.2
2017-Oct-19 19:00N 57°34' W 001°37'815.4
2017-Oct-19 18:31N 57°27' W 001°41'1416.0
2017-Oct-19 17:38N 57°15' W 001°54'215.5
2017-Oct-19 17:31N 57°13' W 001°56'713.3
2017-Oct-19 17:01N 57°08' W 002°04'0 1.0
2017-Oct-19 16:30N 57°09' W 002°05'0 0.0
2017-Oct-19 16:00N 57°09' W 002°05'0 0.0
2017-Oct-19 15:30N 57°09' W 002°05'0 0.0
2017-Oct-19 15:00N 57°09' W 002°05'0 0.0
2017-Oct-19 14:30N 57°09' W 002°05'0 0.0
2017-Oct-19 14:00N 57°09' W 002°05'0 0.0
2017-Oct-19 13:30N 57°09' W 002°05'0 0.0
2017-Oct-19 13:00N 57°09' W 002°05'0 0.0
2017-Oct-19 12:30N 57°09' W 002°05'0 0.0
2017-Oct-19 12:00N 57°09' W 002°05'0 0.0
2017-Oct-19 11:30N 57°09' W 002°05'0 0.0
2017-Oct-19 11:00N 57°09' W 002°05'0 0.0
2017-Oct-19 10:30N 57°09' W 002°05'0 0.0
2017-Oct-19 10:00N 57°09' W 002°05'0 0.0
2017-Oct-19 09:30N 57°09' W 002°05'0 0.0
2017-Oct-19 09:00N 57°09' W 002°05'0 0.0
2017-Oct-19 08:30N 57°09' W 002°05'0 0.0
2017-Oct-19 08:00N 57°09' W 002°05'0 0.0
2017-Oct-19 07:30N 57°09' W 002°05'0 0.0
2017-Oct-19 07:00N 57°09' W 002°05'2 3.2
2017-Oct-19 06:30N 57°09' W 002°02'612.7
2017-Oct-19 06:00N 57°14' W 001°55'612.5
2017-Oct-19 05:30N 57°20' W 001°49'611.9
2017-Oct-19 05:00N 57°25' W 001°44'611.9
2017-Oct-19 04:30N 57°30' W 001°39'612.1
2017-Oct-19 04:00N 57°36' W 001°38'612.7
2017-Oct-19 03:30N 57°42' W 001°36'813.2
2017-Oct-19 02:54N 57°50' W 001°35'5 0.1
2017-Oct-17 20:11N 57°46' W 001°32'210.2
2017-Oct-17 20:00N 57°44' W 001°33'510.3
2017-Oct-17 19:30N 57°39' W 001°34'610.6
2017-Oct-17 18:58N 57°33' W 001°35'511.3
2017-Oct-17 18:30N 57°29' W 001°39'612.8
2017-Oct-17 18:00N 57°23' W 001°44'1214.6
2017-Oct-17 17:12N 57°13' W 001°56'314.5
2017-Oct-17 17:01N 57°11' W 001°59'4 7.1
2017-Oct-17 16:29N 57°09' W 002°05'0 0.0
2017-Oct-17 15:59N 57°09' W 002°05'0 0.0
2017-Oct-17 15:29N 57°09' W 002°05'0 0.0
2017-Oct-17 14:59N 57°09' W 002°05'0 0.0
2017-Oct-17 14:29N 57°09' W 002°05'0 0.0
2017-Oct-17 13:59N 57°09' W 002°05'0 0.0
2017-Oct-17 13:29N 57°09' W 002°05'0 0.0
2017-Oct-17 12:59N 57°09' W 002°05'0 0.0
2017-Oct-17 12:29N 57°09' W 002°05'0 0.0
2017-Oct-17 11:59N 57°09' W 002°05'0 0.0
2017-Oct-17 11:29N 57°09' W 002°05'0 0.0
2017-Oct-17 10:59N 57°09' W 002°05'0 0.0
2017-Oct-17 10:29N 57°09' W 002°05'0 0.0
2017-Oct-17 09:59N 57°09' W 002°05'0 0.0
2017-Oct-17 09:29N 57°09' W 002°05'0 0.5
2017-Oct-17 09:00N 57°09' W 002°04'5 9.2
2017-Oct-17 08:30N 57°12' W 001°59'612.8
2017-Oct-17 08:00N 57°18' W 001°53'712.1
2017-Oct-17 07:26N 57°23' W 001°46'511.6
2017-Oct-17 07:00N 57°28' W 001°41'510.5
2017-Oct-17 06:30N 57°33' W 001°41'510.7
2017-Oct-17 06:00N 57°38' W 001°44'611.7
2017-Oct-17 05:30N 57°42' W 001°51'612.3
2017-Oct-17 05:00N 57°46' W 002°00'6411.6
2017-Oct-16 23:27N 58°51' W 002°03'  
2017-Oct-14 19:16N 57°50' W 001°34'411.5
2017-Oct-14 18:57N 57°46' W 001°35'511.5
2017-Oct-14 18:31N 57°41' W 001°36'510.7
2017-Oct-14 18:00N 57°36' W 001°37'510.8
2017-Oct-14 17:30N 57°30' W 001°39'510.9
2017-Oct-14 17:00N 57°25' W 001°43'1011.4
2017-Oct-14 16:07N 57°16' W 001°52'111.6
2017-Oct-14 15:59N 57°15' W 001°53'611.9
2017-Oct-14 15:30N 57°11' W 001°60'4 6.7
2017-Oct-14 14:59N 57°09' W 002°05'0 0.0
2017-Oct-14 14:29N 57°09' W 002°05'0 0.0
2017-Oct-14 13:59N 57°09' W 002°05'0 0.0
2017-Oct-14 13:29N 57°09' W 002°05'0 0.0
2017-Oct-14 12:59N 57°09' W 002°05'0 0.0
2017-Oct-14 12:29N 57°09' W 002°05'0 0.0
2017-Oct-14 11:59N 57°09' W 002°05'0 0.0
2017-Oct-14 11:29N 57°09' W 002°05'0 0.0
2017-Oct-14 10:58N 57°09' W 002°05'0 0.0
2017-Oct-14 10:28N 57°09' W 002°05'0 0.0
2017-Oct-14 09:59N 57°09' W 002°05'0 0.0
2017-Oct-14 09:28N 57°09' W 002°05'0 0.0
2017-Oct-14 08:58N 57°09' W 002°05'0 0.0
2017-Oct-14 08:29N 57°09' W 002°05'0 0.0
2017-Oct-14 07:59N 57°09' W 002°05'0 0.0
2017-Oct-14 07:29N 57°09' W 002°05'0 0.0
2017-Oct-14 07:00N 57°09' W 002°05'1 1.8
2017-Oct-14 06:30N 57°09' W 002°04'611.3
2017-Oct-14 06:00N 57°13' W 001°56'713.7
2017-Oct-14 05:30N 57°18' W 001°49'713.7
2017-Oct-14 05:00N 57°24' W 001°43'713.4
2017-Oct-14 04:31N 57°30' W 001°39'713.7
2017-Oct-14 04:00N 57°37' W 001°35'713.7
2017-Oct-14 03:30N 57°44' W 001°34'713.4
2017-Oct-14 03:00N 57°51' W 001°34'713.3
2017-Oct-14 02:29N 57°58' W 001°33'10 0.3
2017-Oct-12 19:51N 57°48' W 001°36'514.5
2017-Oct-12 19:30N 57°43' W 001°35'714.0
2017-Oct-12 19:00N 57°36' W 001°36'713.8
2017-Oct-12 18:30N 57°29' W 001°39'713.2
2017-Oct-12 17:59N 57°23' W 001°44'913.4
2017-Oct-12 17:20N 57°16' W 001°52'413.4
2017-Oct-12 17:00N 57°12' W 001°57'611.0
2017-Oct-12 16:30N 57°09' W 002°05'0 0.5
2017-Oct-12 16:00N 57°09' W 002°05'0 0.0
2017-Oct-12 15:30N 57°09' W 002°05'0 0.0
2017-Oct-12 15:00N 57°09' W 002°05'0 0.0
2017-Oct-12 14:30N 57°09' W 002°05'0 0.0
2017-Oct-12 14:00N 57°09' W 002°05'0 0.0
2017-Oct-12 13:30N 57°09' W 002°05'0 0.0
2017-Oct-12 13:00N 57°09' W 002°05'0 0.0
2017-Oct-12 12:30N 57°09' W 002°05'0 0.0
2017-Oct-12 12:00N 57°09' W 002°05'0 0.0
2017-Oct-12 11:30N 57°09' W 002°05'0 0.0
2017-Oct-12 11:00N 57°09' W 002°05'0 0.0
2017-Oct-12 10:30N 57°09' W 002°05'0 0.0
2017-Oct-12 10:00N 57°09' W 002°05'0 0.0
2017-Oct-12 09:30N 57°09' W 002°05'0 0.0
2017-Oct-12 09:00N 57°09' W 002°05'0 0.0
2017-Oct-12 08:30N 57°09' W 002°05'0 0.0
2017-Oct-12 08:00N 57°09' W 002°05'0 0.3
2017-Oct-12 07:30N 57°09' W 002°05'3 5.4
2017-Oct-12 07:00N 57°10' W 002°01'714.2
2017-Oct-12 06:31N 57°16' W 001°53'815.3
2017-Oct-12 06:00N 57°22' W 001°46'815.7
2017-Oct-12 05:31N 57°29' W 001°40'815.8
2017-Oct-12 05:01N 57°37' W 001°37'815.2
2017-Oct-12 04:30N 57°45' W 001°36'714.6
2017-Oct-12 04:01N 57°52' W 001°34'  
Track history (hours):
 
Tides and Currents Weather Stations Pressure Air Temp Water Temp Dewpoint Dewpoint Depression Visibility Wind Speed Wind Dir Waves Ship Positions

Helliar

Last reported at 2017-Oct-21 18:25 UTC. Time now 2017-Oct-22 10:19 UTC.
Position N 57°33' W 001°35'.

Length 122 m; draft 5.4 m.

Type: Cargo ship. MMSI: 235087119.

Date/timePositionNaut miles runAvg speedWind from/ knotsBaromVisibWave heightAir tempDewpointWater temp
2017-Oct-21 18:25N 57°33' W 001°35'614.5
2017-Oct-21 18:00N 57°28' W 001°39'1414.5
2017-Oct-21 17:03N 57°16' W 001°52'114.3
2017-Oct-21 17:00N 57°15' W 001°53'713.7
2017-Oct-21 16:30N 57°10' W 002°01'3 5.4
2017-Oct-21 15:59N 57°09' W 002°05'0 0.0
2017-Oct-21 15:29N 57°09' W 002°05'0 0.0
2017-Oct-21 14:59N 57°09' W 002°05'0 0.0
2017-Oct-21 14:29N 57°09' W 002°05'0 0.0
2017-Oct-21 13:29N 57°09' W 002°05'0 0.0
2017-Oct-21 12:59N 57°09' W 002°05'0 0.0
2017-Oct-21 12:29N 57°09' W 002°05'0 0.0
2017-Oct-21 11:59N 57°09' W 002°05'0 0.0
2017-Oct-21 11:29N 57°09' W 002°05'0 0.0
2017-Oct-21 10:59N 57°09' W 002°05'0 0.0
2017-Oct-21 10:29N 57°09' W 002°05'0 0.0
2017-Oct-21 09:59N 57°09' W 002°05'0 0.0
2017-Oct-21 09:29N 57°09' W 002°05'0 0.0
2017-Oct-21 08:59N 57°09' W 002°05'0 0.9
2017-Oct-21 08:30N 57°08' W 002°04'2 4.7
2017-Oct-21 08:00N 57°10' W 002°01'510.8
2017-Oct-21 07:30N 57°14' W 001°55'611.3
2017-Oct-21 06:59N 57°19' W 001°49'510.9
2017-Oct-21 06:30N 57°24' W 001°45'510.7
2017-Oct-21 06:00N 57°28' W 001°39'510.8
2017-Oct-21 05:30N 57°33' W 001°36'15 0.5
2017-Oct-19 19:57N 57°48' W 001°35'714.7
2017-Oct-19 19:30N 57°42' W 001°36'815.2
2017-Oct-19 19:00N 57°34' W 001°37'815.4
2017-Oct-19 18:31N 57°27' W 001°41'1416.0
2017-Oct-19 17:38N 57°15' W 001°54'215.5
2017-Oct-19 17:31N 57°13' W 001°56'713.3
2017-Oct-19 17:01N 57°08' W 002°04'0 1.0
2017-Oct-19 16:30N 57°09' W 002°05'0 0.0
2017-Oct-19 16:00N 57°09' W 002°05'0 0.0
2017-Oct-19 15:30N 57°09' W 002°05'0 0.0
2017-Oct-19 15:00N 57°09' W 002°05'0 0.0
2017-Oct-19 14:30N 57°09' W 002°05'0 0.0
2017-Oct-19 14:00N 57°09' W 002°05'0 0.0
2017-Oct-19 13:30N 57°09' W 002°05'0 0.0
2017-Oct-19 13:00N 57°09' W 002°05'0 0.0
2017-Oct-19 12:30N 57°09' W 002°05'0 0.0
2017-Oct-19 12:00N 57°09' W 002°05'0 0.0
2017-Oct-19 11:30N 57°09' W 002°05'0 0.0
2017-Oct-19 11:00N 57°09' W 002°05'0 0.0
2017-Oct-19 10:30N 57°09' W 002°05'0 0.0
2017-Oct-19 10:00N 57°09' W 002°05'0 0.0
2017-Oct-19 09:30N 57°09' W 002°05'0 0.0
2017-Oct-19 09:00N 57°09' W 002°05'0 0.0
2017-Oct-19 08:30N 57°09' W 002°05'0 0.0
2017-Oct-19 08:00N 57°09' W 002°05'0 0.0
2017-Oct-19 07:30N 57°09' W 002°05'0 0.0
2017-Oct-19 07:00N 57°09' W 002°05'2 3.2
2017-Oct-19 06:30N 57°09' W 002°02'612.7
2017-Oct-19 06:00N 57°14' W 001°55'612.5
2017-Oct-19 05:30N 57°20' W 001°49'611.9
2017-Oct-19 05:00N 57°25' W 001°44'611.9
2017-Oct-19 04:30N 57°30' W 001°39'612.1
2017-Oct-19 04:00N 57°36' W 001°38'612.7
2017-Oct-19 03:30N 57°42' W 001°36'813.2
2017-Oct-19 02:54N 57°50' W 001°35'5 0.1
2017-Oct-17 20:11N 57°46' W 001°32'210.2
2017-Oct-17 20:00N 57°44' W 001°33'510.3
2017-Oct-17 19:30N 57°39' W 001°34'610.6
2017-Oct-17 18:58N 57°33' W 001°35'511.3
2017-Oct-17 18:30N 57°29' W 001°39'612.8
2017-Oct-17 18:00N 57°23' W 001°44'1214.6
2017-Oct-17 17:12N 57°13' W 001°56'314.5
2017-Oct-17 17:01N 57°11' W 001°59'4 7.1
2017-Oct-17 16:29N 57°09' W 002°05'0 0.0
2017-Oct-17 15:59N 57°09' W 002°05'0 0.0
2017-Oct-17 15:29N 57°09' W 002°05'0 0.0
2017-Oct-17 14:59N 57°09' W 002°05'0 0.0
2017-Oct-17 14:29N 57°09' W 002°05'0 0.0
2017-Oct-17 13:59N 57°09' W 002°05'0 0.0
2017-Oct-17 13:29N 57°09' W 002°05'0 0.0
2017-Oct-17 12:59N 57°09' W 002°05'0 0.0
2017-Oct-17 12:29N 57°09' W 002°05'0 0.0
2017-Oct-17 11:59N 57°09' W 002°05'0 0.0
2017-Oct-17 11:29N 57°09' W 002°05'0 0.0
2017-Oct-17 10:59N 57°09' W 002°05'0 0.0
2017-Oct-17 10:29N 57°09' W 002°05'0 0.0
2017-Oct-17 09:59N 57°09' W 002°05'0 0.0
2017-Oct-17 09:29N 57°09' W 002°05'0 0.5
2017-Oct-17 09:00N 57°09' W 002°04'5 9.2
2017-Oct-17 08:30N 57°12' W 001°59'612.8
2017-Oct-17 08:00N 57°18' W 001°53'712.1
2017-Oct-17 07:26N 57°23' W 001°46'511.6
2017-Oct-17 07:00N 57°28' W 001°41'510.5
2017-Oct-17 06:30N 57°33' W 001°41'510.7
2017-Oct-17 06:00N 57°38' W 001°44'611.7
2017-Oct-17 05:30N 57°42' W 001°51'612.3
2017-Oct-17 05:00N 57°46' W 002°00'6411.6
2017-Oct-16 23:27N 58°51' W 002°03'  
2017-Oct-14 19:16N 57°50' W 001°34'411.5
2017-Oct-14 18:57N 57°46' W 001°35'511.5
2017-Oct-14 18:31N 57°41' W 001°36'510.7
2017-Oct-14 18:00N 57°36' W 001°37'510.8
2017-Oct-14 17:30N 57°30' W 001°39'510.9
2017-Oct-14 17:00N 57°25' W 001°43'1011.4
2017-Oct-14 16:07N 57°16' W 001°52'111.6
2017-Oct-14 15:59N 57°15' W 001°53'611.9
2017-Oct-14 15:30N 57°11' W 001°60'4 6.7
2017-Oct-14 14:59N 57°09' W 002°05'0 0.0
2017-Oct-14 14:29N 57°09' W 002°05'0 0.0
2017-Oct-14 13:59N 57°09' W 002°05'0 0.0
2017-Oct-14 13:29N 57°09' W 002°05'0 0.0
2017-Oct-14 12:59N 57°09' W 002°05'0 0.0
2017-Oct-14 12:29N 57°09' W 002°05'0 0.0
2017-Oct-14 11:59N 57°09' W 002°05'0 0.0
2017-Oct-14 11:29N 57°09' W 002°05'0 0.0
2017-Oct-14 10:58N 57°09' W 002°05'0 0.0
2017-Oct-14 10:28N 57°09' W 002°05'0 0.0
2017-Oct-14 09:59N 57°09' W 002°05'0 0.0
2017-Oct-14 09:28N 57°09' W 002°05'0 0.0
2017-Oct-14 08:58N 57°09' W 002°05'0 0.0
2017-Oct-14 08:29N 57°09' W 002°05'0 0.0
2017-Oct-14 07:59N 57°09' W 002°05'0 0.0
2017-Oct-14 07:29N 57°09' W 002°05'0 0.0
2017-Oct-14 07:00N 57°09' W 002°05'1 1.8
2017-Oct-14 06:30N 57°09' W 002°04'611.3
2017-Oct-14 06:00N 57°13' W 001°56'713.7
2017-Oct-14 05:30N 57°18' W 001°49'713.7
2017-Oct-14 05:00N 57°24' W 001°43'713.4
2017-Oct-14 04:31N 57°30' W 001°39'713.7
2017-Oct-14 04:00N 57°37' W 001°35'713.7
2017-Oct-14 03:30N 57°44' W 001°34'713.4
2017-Oct-14 03:00N 57°51' W 001°34'713.3
2017-Oct-14 02:29N 57°58' W 001°33'10 0.3
2017-Oct-12 19:51N 57°48' W 001°36'514.5
2017-Oct-12 19:30N 57°43' W 001°35'714.0
2017-Oct-12 19:00N 57°36' W 001°36'713.8
2017-Oct-12 18:30N 57°29' W 001°39'713.2
2017-Oct-12 17:59N 57°23' W 001°44'913.4
2017-Oct-12 17:20N 57°16' W 001°52'413.4
2017-Oct-12 17:00N 57°12' W 001°57'611.0
2017-Oct-12 16:30N 57°09' W 002°05'0 0.5
2017-Oct-12 16:00N 57°09' W 002°05'0 0.0
2017-Oct-12 15:30N 57°09' W 002°05'0 0.0
2017-Oct-12 15:00N 57°09' W 002°05'0 0.0
2017-Oct-12 14:30N 57°09' W 002°05'0 0.0
2017-Oct-12 14:00N 57°09' W 002°05'0 0.0
2017-Oct-12 13:30N 57°09' W 002°05'0 0.0
2017-Oct-12 13:00N 57°09' W 002°05'0 0.0
2017-Oct-12 12:30N 57°09' W 002°05'0 0.0
2017-Oct-12 12:00N 57°09' W 002°05'0 0.0
2017-Oct-12 11:30N 57°09' W 002°05'0 0.0
2017-Oct-12 11:00N 57°09' W 002°05'0 0.0
2017-Oct-12 10:30N 57°09' W 002°05'0 0.0
2017-Oct-12 10:00N 57°09' W 002°05'0 0.0
2017-Oct-12 09:30N 57°09' W 002°05'0 0.0
2017-Oct-12 09:00N 57°09' W 002°05'0 0.0
2017-Oct-12 08:30N 57°09' W 002°05'0 0.0
2017-Oct-12 08:00N 57°09' W 002°05'0 0.3
2017-Oct-12 07:30N 57°09' W 002°05'3 5.4
2017-Oct-12 07:00N 57°10' W 002°01'714.2
2017-Oct-12 06:31N 57°16' W 001°53'815.3
2017-Oct-12 06:00N 57°22' W 001°46'815.7
2017-Oct-12 05:31N 57°29' W 001°40'815.8
2017-Oct-12 05:01N 57°37' W 001°37'815.2
2017-Oct-12 04:30N 57°45' W 001°36'714.6
2017-Oct-12 04:01N 57°52' W 001°34'  

Dump ship's entire track history